sensor_id;sensor_type;location;lat;lon;timestamp;P1;durP1;ratioP1;P2;durP2;ratioP2
45198;SDS011;30941;46.422;18.772;2022-10-16T00:01:37;10.85;;;6.32;;
45198;SDS011;30941;46.422;18.772;2022-10-16T00:04:03;12.10;;;6.22;;
45198;SDS011;30941;46.422;18.772;2022-10-16T00:06:29;9.70;;;5.70;;
45198;SDS011;30941;46.422;18.772;2022-10-16T00:08:55;13.32;;;6.53;;
45198;SDS011;30941;46.422;18.772;2022-10-16T00:11:21;13.60;;;6.13;;
45198;SDS011;30941;46.422;18.772;2022-10-16T00:13:48;8.70;;;6.00;;
45198;SDS011;30941;46.422;18.772;2022-10-16T00:16:16;9.90;;;6.03;;
45198;SDS011;30941;46.422;18.772;2022-10-16T00:18:41;12.40;;;6.97;;
45198;SDS011;30941;46.422;18.772;2022-10-16T00:21:08;8.65;;;6.00;;
45198;SDS011;30941;46.422;18.772;2022-10-16T00:23:36;11.57;;;6.20;;
45198;SDS011;30941;46.422;18.772;2022-10-16T00:26:03;11.70;;;6.50;;
45198;SDS011;30941;46.422;18.772;2022-10-16T00:28:30;11.65;;;6.63;;
45198;SDS011;30941;46.422;18.772;2022-10-16T00:30:55;10.50;;;6.00;;
45198;SDS011;30941;46.422;18.772;2022-10-16T00:33:21;10.65;;;6.68;;
45198;SDS011;30941;46.422;18.772;2022-10-16T00:35:47;10.23;;;6.55;;
45198;SDS011;30941;46.422;18.772;2022-10-16T00:38:13;10.15;;;6.28;;
45198;SDS011;30941;46.422;18.772;2022-10-16T00:40:38;11.80;;;6.82;;
45198;SDS011;30941;46.422;18.772;2022-10-16T00:43:14;10.30;;;6.25;;
45198;SDS011;30941;46.422;18.772;2022-10-16T00:48:23;11.77;;;6.72;;
45198;SDS011;30941;46.422;18.772;2022-10-16T00:50:49;33.65;;;6.70;;
45198;SDS011;30941;46.422;18.772;2022-10-16T00:53:14;11.52;;;6.75;;
45198;SDS011;30941;46.422;18.772;2022-10-16T00:55:39;9.68;;;5.93;;
45198;SDS011;30941;46.422;18.772;2022-10-16T00:58:05;11.55;;;6.60;;
45198;SDS011;30941;46.422;18.772;2022-10-16T01:00:30;9.45;;;6.25;;
45198;SDS011;30941;46.422;18.772;2022-10-16T01:02:57;16.45;;;6.90;;
45198;SDS011;30941;46.422;18.772;2022-10-16T01:05:25;11.52;;;6.35;;
45198;SDS011;30941;46.422;18.772;2022-10-16T01:08:04;13.25;;;6.82;;
45198;SDS011;30941;46.422;18.772;2022-10-16T01:13:32;10.65;;;7.20;;
45198;SDS011;30941;46.422;18.772;2022-10-16T01:16:01;13.00;;;6.93;;
45198;SDS011;30941;46.422;18.772;2022-10-16T01:18:45;10.65;;;6.55;;
45198;SDS011;30941;46.422;18.772;2022-10-16T01:21:13;8.93;;;5.97;;
45198;SDS011;30941;46.422;18.772;2022-10-16T01:28:58;12.35;;;7.40;;
45198;SDS011;30941;46.422;18.772;2022-10-16T01:31:31;11.02;;;6.90;;
45198;SDS011;30941;46.422;18.772;2022-10-16T01:36:27;11.60;;;6.97;;
45198;SDS011;30941;46.422;18.772;2022-10-16T01:38:56;11.25;;;6.43;;
45198;SDS011;30941;46.422;18.772;2022-10-16T01:41:26;10.63;;;6.65;;
45198;SDS011;30941;46.422;18.772;2022-10-16T01:44:38;12.95;;;6.70;;
45198;SDS011;30941;46.422;18.772;2022-10-16T01:46:46;12.70;;;6.78;;
45198;SDS011;30941;46.422;18.772;2022-10-16T01:49:12;11.65;;;7.40;;
45198;SDS011;30941;46.422;18.772;2022-10-16T01:51:38;13.32;;;7.45;;
45198;SDS011;30941;46.422;18.772;2022-10-16T01:54:04;15.60;;;8.20;;
45198;SDS011;30941;46.422;18.772;2022-10-16T01:56:30;10.32;;;7.25;;
45198;SDS011;30941;46.422;18.772;2022-10-16T01:59:06;12.55;;;8.10;;
45198;SDS011;30941;46.422;18.772;2022-10-16T02:01:35;11.60;;;7.38;;
45198;SDS011;30941;46.422;18.772;2022-10-16T02:04:11;9.98;;;7.22;;
45198;SDS011;30941;46.422;18.772;2022-10-16T02:06:40;11.98;;;7.30;;
45198;SDS011;30941;46.422;18.772;2022-10-16T02:09:06;10.95;;;7.57;;
45198;SDS011;30941;46.422;18.772;2022-10-16T02:11:31;15.48;;;7.18;;
45198;SDS011;30941;46.422;18.772;2022-10-16T02:14:06;14.15;;;7.38;;
45198;SDS011;30941;46.422;18.772;2022-10-16T02:16:33;14.00;;;7.00;;
45198;SDS011;30941;46.422;18.772;2022-10-16T02:19:00;12.77;;;7.40;;
45198;SDS011;30941;46.422;18.772;2022-10-16T02:21:26;12.70;;;7.85;;
45198;SDS011;30941;46.422;18.772;2022-10-16T02:23:58;15.27;;;7.47;;
45198;SDS011;30941;46.422;18.772;2022-10-16T02:26:39;11.63;;;6.78;;
45198;SDS011;30941;46.422;18.772;2022-10-16T02:29:10;13.50;;;7.28;;
45198;SDS011;30941;46.422;18.772;2022-10-16T02:31:38;9.65;;;7.00;;
45198;SDS011;30941;46.422;18.772;2022-10-16T02:34:07;11.80;;;7.50;;
45198;SDS011;30941;46.422;18.772;2022-10-16T02:36:33;12.15;;;6.80;;
45198;SDS011;30941;46.422;18.772;2022-10-16T02:39:00;12.00;;;7.40;;
45198;SDS011;30941;46.422;18.772;2022-10-16T02:41:28;13.00;;;7.30;;
45198;SDS011;30941;46.422;18.772;2022-10-16T02:43:54;9.80;;;6.82;;
45198;SDS011;30941;46.422;18.772;2022-10-16T02:46:20;12.15;;;6.43;;
45198;SDS011;30941;46.422;18.772;2022-10-16T02:48:45;13.57;;;6.50;;
45198;SDS011;30941;46.422;18.772;2022-10-16T02:51:11;13.10;;;6.55;;
45198;SDS011;30941;46.422;18.772;2022-10-16T02:53:36;11.35;;;6.88;;
45198;SDS011;30941;46.422;18.772;2022-10-16T02:56:01;10.00;;;6.82;;
45198;SDS011;30941;46.422;18.772;2022-10-16T02:58:27;10.32;;;6.05;;
45198;SDS011;30941;46.422;18.772;2022-10-16T03:00:52;11.52;;;7.10;;
45198;SDS011;30941;46.422;18.772;2022-10-16T03:03:17;12.63;;;7.05;;
45198;SDS011;30941;46.422;18.772;2022-10-16T03:05:43;12.60;;;7.05;;
45198;SDS011;30941;46.422;18.772;2022-10-16T03:08:10;11.50;;;7.35;;
45198;SDS011;30941;46.422;18.772;2022-10-16T03:10:36;10.48;;;6.88;;
45198;SDS011;30941;46.422;18.772;2022-10-16T03:13:01;12.65;;;7.20;;
45198;SDS011;30941;46.422;18.772;2022-10-16T03:15:27;12.60;;;6.80;;
45198;SDS011;30941;46.422;18.772;2022-10-16T03:17:53;10.77;;;7.22;;
45198;SDS011;30941;46.422;18.772;2022-10-16T03:20:19;9.80;;;6.53;;
45198;SDS011;30941;46.422;18.772;2022-10-16T03:22:44;12.60;;;6.93;;
45198;SDS011;30941;46.422;18.772;2022-10-16T03:25:10;10.73;;;6.60;;
45198;SDS011;30941;46.422;18.772;2022-10-16T03:27:35;13.23;;;6.88;;
45198;SDS011;30941;46.422;18.772;2022-10-16T03:30:01;12.43;;;7.03;;
45198;SDS011;30941;46.422;18.772;2022-10-16T03:32:26;10.55;;;7.25;;
45198;SDS011;30941;46.422;18.772;2022-10-16T03:34:53;10.70;;;6.78;;
45198;SDS011;30941;46.422;18.772;2022-10-16T03:37:19;12.30;;;6.78;;
45198;SDS011;30941;46.422;18.772;2022-10-16T03:39:44;12.45;;;6.75;;
45198;SDS011;30941;46.422;18.772;2022-10-16T03:42:10;13.40;;;7.03;;
45198;SDS011;30941;46.422;18.772;2022-10-16T03:44:35;14.57;;;7.15;;
45198;SDS011;30941;46.422;18.772;2022-10-16T03:47:00;12.32;;;7.22;;
45198;SDS011;30941;46.422;18.772;2022-10-16T03:49:26;12.23;;;7.20;;
45198;SDS011;30941;46.422;18.772;2022-10-16T03:51:51;14.07;;;6.82;;
45198;SDS011;30941;46.422;18.772;2022-10-16T03:54:16;14.30;;;7.93;;
45198;SDS011;30941;46.422;18.772;2022-10-16T03:56:42;14.63;;;8.50;;
45198;SDS011;30941;46.422;18.772;2022-10-16T03:59:07;9.77;;;6.60;;
45198;SDS011;30941;46.422;18.772;2022-10-16T04:01:32;10.35;;;7.30;;
45198;SDS011;30941;46.422;18.772;2022-10-16T04:03:58;11.88;;;7.57;;
45198;SDS011;30941;46.422;18.772;2022-10-16T04:06:23;12.18;;;7.00;;
45198;SDS011;30941;46.422;18.772;2022-10-16T04:08:49;12.55;;;7.85;;
45198;SDS011;30941;46.422;18.772;2022-10-16T04:11:14;12.48;;;7.72;;
45198;SDS011;30941;46.422;18.772;2022-10-16T04:13:39;13.68;;;7.18;;
45198;SDS011;30941;46.422;18.772;2022-10-16T04:16:05;16.15;;;7.80;;
45198;SDS011;30941;46.422;18.772;2022-10-16T04:18:30;12.10;;;7.18;;
45198;SDS011;30941;46.422;18.772;2022-10-16T04:20:56;11.93;;;7.57;;
45198;SDS011;30941;46.422;18.772;2022-10-16T04:23:21;11.95;;;7.40;;
45198;SDS011;30941;46.422;18.772;2022-10-16T04:25:48;11.07;;;8.00;;
45198;SDS011;30941;46.422;18.772;2022-10-16T04:28:13;17.38;;;7.82;;
45198;SDS011;30941;46.422;18.772;2022-10-16T04:30:38;16.00;;;7.90;;
45198;SDS011;30941;46.422;18.772;2022-10-16T04:33:04;15.85;;;7.90;;
45198;SDS011;30941;46.422;18.772;2022-10-16T04:35:29;11.95;;;7.60;;
45198;SDS011;30941;46.422;18.772;2022-10-16T04:37:56;15.88;;;7.88;;
45198;SDS011;30941;46.422;18.772;2022-10-16T04:40:22;12.80;;;7.28;;
45198;SDS011;30941;46.422;18.772;2022-10-16T04:42:48;13.30;;;7.57;;
45198;SDS011;30941;46.422;18.772;2022-10-16T04:45:13;13.13;;;7.43;;
45198;SDS011;30941;46.422;18.772;2022-10-16T04:47:39;12.65;;;7.90;;
45198;SDS011;30941;46.422;18.772;2022-10-16T04:50:05;12.57;;;7.78;;
45198;SDS011;30941;46.422;18.772;2022-10-16T04:52:31;12.30;;;7.47;;
45198;SDS011;30941;46.422;18.772;2022-10-16T04:54:57;15.43;;;8.00;;
45198;SDS011;30941;46.422;18.772;2022-10-16T04:57:25;12.20;;;7.75;;
45198;SDS011;30941;46.422;18.772;2022-10-16T04:59:51;12.63;;;6.82;;
45198;SDS011;30941;46.422;18.772;2022-10-16T05:02:17;12.98;;;7.53;;
45198;SDS011;30941;46.422;18.772;2022-10-16T05:04:42;11.18;;;7.50;;
45198;SDS011;30941;46.422;18.772;2022-10-16T05:07:08;11.27;;;7.07;;
45198;SDS011;30941;46.422;18.772;2022-10-16T05:09:33;16.55;;;7.90;;
45198;SDS011;30941;46.422;18.772;2022-10-16T05:11:59;13.63;;;7.45;;
45198;SDS011;30941;46.422;18.772;2022-10-16T05:14:24;14.93;;;8.23;;
45198;SDS011;30941;46.422;18.772;2022-10-16T05:16:49;9.77;;;7.60;;
45198;SDS011;30941;46.422;18.772;2022-10-16T05:19:15;13.40;;;7.88;;
45198;SDS011;30941;46.422;18.772;2022-10-16T05:21:40;12.80;;;8.57;;
45198;SDS011;30941;46.422;18.772;2022-10-16T05:24:06;12.88;;;8.32;;
45198;SDS011;30941;46.422;18.772;2022-10-16T05:26:31;12.45;;;8.30;;
45198;SDS011;30941;46.422;18.772;2022-10-16T05:28:57;15.55;;;8.65;;
45198;SDS011;30941;46.422;18.772;2022-10-16T05:31:22;12.50;;;7.95;;
45198;SDS011;30941;46.422;18.772;2022-10-16T05:33:47;12.45;;;7.88;;
45198;SDS011;30941;46.422;18.772;2022-10-16T05:36:13;11.75;;;8.18;;
45198;SDS011;30941;46.422;18.772;2022-10-16T05:38:39;13.35;;;7.72;;
45198;SDS011;30941;46.422;18.772;2022-10-16T05:41:05;14.18;;;8.27;;
45198;SDS011;30941;46.422;18.772;2022-10-16T05:43:30;14.48;;;9.50;;
45198;SDS011;30941;46.422;18.772;2022-10-16T05:45:57;10.60;;;7.20;;
45198;SDS011;30941;46.422;18.772;2022-10-16T05:48:24;13.38;;;7.28;;
45198;SDS011;30941;46.422;18.772;2022-10-16T05:50:56;11.40;;;6.60;;
45198;SDS011;30941;46.422;18.772;2022-10-16T05:53:26;14.18;;;7.47;;
45198;SDS011;30941;46.422;18.772;2022-10-16T05:55:53;9.82;;;6.95;;
45198;SDS011;30941;46.422;18.772;2022-10-16T05:58:21;14.25;;;6.95;;
45198;SDS011;30941;46.422;18.772;2022-10-16T06:01:00;12.80;;;6.97;;
45198;SDS011;30941;46.422;18.772;2022-10-16T06:03:29;15.60;;;7.22;;
45198;SDS011;30941;46.422;18.772;2022-10-16T06:05:55;12.00;;;7.20;;
45198;SDS011;30941;46.422;18.772;2022-10-16T06:08:21;10.63;;;7.22;;
45198;SDS011;30941;46.422;18.772;2022-10-16T06:10:47;11.07;;;7.30;;
45198;SDS011;30941;46.422;18.772;2022-10-16T06:13:13;13.82;;;7.60;;
45198;SDS011;30941;46.422;18.772;2022-10-16T06:15:39;12.27;;;7.75;;
45198;SDS011;30941;46.422;18.772;2022-10-16T06:18:07;12.02;;;6.75;;
45198;SDS011;30941;46.422;18.772;2022-10-16T06:20:33;9.95;;;7.18;;
45198;SDS011;30941;46.422;18.772;2022-10-16T06:22:59;13.13;;;7.82;;
45198;SDS011;30941;46.422;18.772;2022-10-16T06:25:24;11.77;;;7.20;;
45198;SDS011;30941;46.422;18.772;2022-10-16T06:27:49;13.40;;;6.88;;
45198;SDS011;30941;46.422;18.772;2022-10-16T06:30:15;10.27;;;6.47;;
45198;SDS011;30941;46.422;18.772;2022-10-16T06:32:40;11.48;;;7.43;;
45198;SDS011;30941;46.422;18.772;2022-10-16T06:35:05;10.73;;;7.03;;
45198;SDS011;30941;46.422;18.772;2022-10-16T06:37:31;12.88;;;6.57;;
45198;SDS011;30941;46.422;18.772;2022-10-16T06:39:56;11.98;;;6.22;;
45198;SDS011;30941;46.422;18.772;2022-10-16T06:42:21;12.90;;;8.25;;
45198;SDS011;30941;46.422;18.772;2022-10-16T06:44:47;13.40;;;7.75;;
45198;SDS011;30941;46.422;18.772;2022-10-16T06:47:12;12.73;;;7.10;;
45198;SDS011;30941;46.422;18.772;2022-10-16T06:49:37;11.60;;;7.72;;
45198;SDS011;30941;46.422;18.772;2022-10-16T06:52:03;14.80;;;7.65;;
45198;SDS011;30941;46.422;18.772;2022-10-16T06:54:28;11.02;;;7.07;;
45198;SDS011;30941;46.422;18.772;2022-10-16T06:56:54;15.63;;;6.72;;
45198;SDS011;30941;46.422;18.772;2022-10-16T06:59:19;14.13;;;7.35;;
45198;SDS011;30941;46.422;18.772;2022-10-16T07:01:45;12.15;;;6.70;;
45198;SDS011;30941;46.422;18.772;2022-10-16T07:04:11;14.07;;;7.93;;
45198;SDS011;30941;46.422;18.772;2022-10-16T07:06:36;14.13;;;7.05;;
45198;SDS011;30941;46.422;18.772;2022-10-16T07:09:05;9.88;;;6.95;;
45198;SDS011;30941;46.422;18.772;2022-10-16T07:11:32;11.57;;;7.05;;
45198;SDS011;30941;46.422;18.772;2022-10-16T07:13:58;13.57;;;6.55;;
45198;SDS011;30941;46.422;18.772;2022-10-16T07:16:24;10.75;;;6.80;;
45198;SDS011;30941;46.422;18.772;2022-10-16T07:18:51;12.48;;;7.25;;
45198;SDS011;30941;46.422;18.772;2022-10-16T07:21:22;12.45;;;6.78;;
45198;SDS011;30941;46.422;18.772;2022-10-16T07:23:50;12.15;;;6.82;;
45198;SDS011;30941;46.422;18.772;2022-10-16T07:26:16;13.23;;;6.68;;
45198;SDS011;30941;46.422;18.772;2022-10-16T07:28:42;11.75;;;6.82;;
45198;SDS011;30941;46.422;18.772;2022-10-16T07:31:09;11.25;;;6.68;;
45198;SDS011;30941;46.422;18.772;2022-10-16T07:33:35;15.13;;;6.78;;
45198;SDS011;30941;46.422;18.772;2022-10-16T07:36:01;12.52;;;6.85;;
45198;SDS011;30941;46.422;18.772;2022-10-16T07:38:27;12.57;;;7.07;;
45198;SDS011;30941;46.422;18.772;2022-10-16T07:40:56;13.40;;;6.95;;
45198;SDS011;30941;46.422;18.772;2022-10-16T07:43:23;11.05;;;6.68;;
45198;SDS011;30941;46.422;18.772;2022-10-16T07:45:48;13.20;;;6.72;;
45198;SDS011;30941;46.422;18.772;2022-10-16T07:48:14;14.02;;;7.53;;
45198;SDS011;30941;46.422;18.772;2022-10-16T07:50:40;14.77;;;7.18;;
45198;SDS011;30941;46.422;18.772;2022-10-16T07:53:06;11.48;;;6.90;;
45198;SDS011;30941;46.422;18.772;2022-10-16T07:55:31;9.93;;;6.57;;
45198;SDS011;30941;46.422;18.772;2022-10-16T07:57:57;10.70;;;6.68;;
45198;SDS011;30941;46.422;18.772;2022-10-16T08:00:22;10.32;;;6.55;;
45198;SDS011;30941;46.422;18.772;2022-10-16T08:02:48;13.85;;;6.90;;
45198;SDS011;30941;46.422;18.772;2022-10-16T08:05:13;10.38;;;6.68;;
45198;SDS011;30941;46.422;18.772;2022-10-16T08:07:38;10.77;;;7.50;;
45198;SDS011;30941;46.422;18.772;2022-10-16T08:10:04;10.32;;;6.88;;
45198;SDS011;30941;46.422;18.772;2022-10-16T08:12:30;8.95;;;6.32;;
45198;SDS011;30941;46.422;18.772;2022-10-16T08:14:55;9.35;;;6.63;;
45198;SDS011;30941;46.422;18.772;2022-10-16T08:17:20;13.48;;;8.05;;
45198;SDS011;30941;46.422;18.772;2022-10-16T08:19:46;12.75;;;6.50;;
45198;SDS011;30941;46.422;18.772;2022-10-16T08:22:12;11.57;;;6.60;;
45198;SDS011;30941;46.422;18.772;2022-10-16T08:24:38;10.10;;;6.10;;
45198;SDS011;30941;46.422;18.772;2022-10-16T08:27:03;9.65;;;6.68;;
45198;SDS011;30941;46.422;18.772;2022-10-16T08:29:29;9.82;;;6.88;;
45198;SDS011;30941;46.422;18.772;2022-10-16T08:31:54;9.07;;;6.07;;
45198;SDS011;30941;46.422;18.772;2022-10-16T08:34:20;11.50;;;6.47;;
45198;SDS011;30941;46.422;18.772;2022-10-16T08:36:45;11.55;;;7.07;;
45198;SDS011;30941;46.422;18.772;2022-10-16T08:39:10;10.45;;;6.82;;
45198;SDS011;30941;46.422;18.772;2022-10-16T08:44:29;9.93;;;6.22;;
45198;SDS011;30941;46.422;18.772;2022-10-16T08:49:40;10.63;;;6.32;;
45198;SDS011;30941;46.422;18.772;2022-10-16T08:52:10;10.68;;;6.55;;
45198;SDS011;30941;46.422;18.772;2022-10-16T08:54:37;10.75;;;6.18;;
45198;SDS011;30941;46.422;18.772;2022-10-16T08:57:09;10.88;;;6.35;;
45198;SDS011;30941;46.422;18.772;2022-10-16T08:59:37;11.77;;;6.28;;
45198;SDS011;30941;46.422;18.772;2022-10-16T09:02:02;9.00;;;6.18;;
45198;SDS011;30941;46.422;18.772;2022-10-16T09:10:00;12.77;;;5.43;;
45198;SDS011;30941;46.422;18.772;2022-10-16T09:20:56;11.13;;;7.63;;
45198;SDS011;30941;46.422;18.772;2022-10-16T09:23:27;10.02;;;6.15;;
45198;SDS011;30941;46.422;18.772;2022-10-16T09:25:54;10.95;;;6.30;;
45198;SDS011;30941;46.422;18.772;2022-10-16T09:28:21;10.00;;;6.05;;
45198;SDS011;30941;46.422;18.772;2022-10-16T09:30:46;11.90;;;5.88;;
45198;SDS011;30941;46.422;18.772;2022-10-16T09:33:15;15.93;;;6.50;;
45198;SDS011;30941;46.422;18.772;2022-10-16T09:35:47;11.15;;;6.47;;
45198;SDS011;30941;46.422;18.772;2022-10-16T09:38:47;13.02;;;6.53;;
45198;SDS011;30941;46.422;18.772;2022-10-16T09:41:15;11.77;;;6.90;;
45198;SDS011;30941;46.422;18.772;2022-10-16T09:43:48;10.73;;;6.15;;
45198;SDS011;30941;46.422;18.772;2022-10-16T09:46:24;18.17;;;6.85;;
45198;SDS011;30941;46.422;18.772;2022-10-16T09:49:39;11.15;;;6.10;;
45198;SDS011;30941;46.422;18.772;2022-10-16T09:51:49;11.15;;;5.93;;
45198;SDS011;30941;46.422;18.772;2022-10-16T09:54:20;9.60;;;6.30;;
45198;SDS011;30941;46.422;18.772;2022-10-16T09:56:46;11.57;;;6.55;;
45198;SDS011;30941;46.422;18.772;2022-10-16T09:59:17;9.30;;;6.32;;
45198;SDS011;30941;46.422;18.772;2022-10-16T10:04:14;15.45;;;6.93;;
45198;SDS011;30941;46.422;18.772;2022-10-16T10:06:46;11.90;;;7.35;;
45198;SDS011;30941;46.422;18.772;2022-10-16T10:09:22;11.77;;;6.88;;
45198;SDS011;30941;46.422;18.772;2022-10-16T10:11:54;17.08;;;8.30;;
45198;SDS011;30941;46.422;18.772;2022-10-16T10:14:39;10.88;;;7.00;;
45198;SDS011;30941;46.422;18.772;2022-10-16T10:24:56;8.70;;;5.93;;
45198;SDS011;30941;46.422;18.772;2022-10-16T10:27:29;7.40;;;6.03;;
45198;SDS011;30941;46.422;18.772;2022-10-16T10:38:16;7.93;;;5.63;;
45198;SDS011;30941;46.422;18.772;2022-10-16T10:40:51;7.22;;;5.50;;
45198;SDS011;30941;46.422;18.772;2022-10-16T10:45:55;9.38;;;5.13;;
45198;SDS011;30941;46.422;18.772;2022-10-16T10:51:04;9.48;;;5.40;;
45198;SDS011;30941;46.422;18.772;2022-10-16T10:53:44;8.75;;;5.30;;
45198;SDS011;30941;46.422;18.772;2022-10-16T11:02:13;6.95;;;4.70;;
45198;SDS011;30941;46.422;18.772;2022-10-16T11:07:52;7.38;;;4.78;;
45198;SDS011;30941;46.422;18.772;2022-10-16T11:10:24;7.32;;;4.53;;
45198;SDS011;30941;46.422;18.772;2022-10-16T11:15:19;9.00;;;4.43;;
45198;SDS011;30941;46.422;18.772;2022-10-16T11:20:24;6.78;;;4.38;;
45198;SDS011;30941;46.422;18.772;2022-10-16T11:23:00;6.47;;;4.13;;
45198;SDS011;30941;46.422;18.772;2022-10-16T11:25:30;7.45;;;4.78;;
45198;SDS011;30941;46.422;18.772;2022-10-16T11:30:26;8.25;;;4.50;;
45198;SDS011;30941;46.422;18.772;2022-10-16T11:38:21;8.70;;;4.50;;
45198;SDS011;30941;46.422;18.772;2022-10-16T11:40:48;8.23;;;4.57;;
45198;SDS011;30941;46.422;18.772;2022-10-16T11:43:20;8.30;;;4.18;;
45198;SDS011;30941;46.422;18.772;2022-10-16T11:46:24;11.02;;;4.78;;
45198;SDS011;30941;46.422;18.772;2022-10-16T11:48:54;8.57;;;3.92;;
45198;SDS011;30941;46.422;18.772;2022-10-16T11:51:38;8.10;;;4.35;;
45198;SDS011;30941;46.422;18.772;2022-10-16T11:56:35;6.93;;;4.68;;
45198;SDS011;30941;46.422;18.772;2022-10-16T11:59:04;5.78;;;3.78;;
45198;SDS011;30941;46.422;18.772;2022-10-16T12:01:53;9.05;;;4.47;;
45198;SDS011;30941;46.422;18.772;2022-10-16T12:04:35;7.03;;;4.43;;
45198;SDS011;30941;46.422;18.772;2022-10-16T12:07:11;5.45;;;3.90;;
45198;SDS011;30941;46.422;18.772;2022-10-16T12:09:39;6.00;;;3.97;;
45198;SDS011;30941;46.422;18.772;2022-10-16T12:12:23;5.63;;;3.97;;
45198;SDS011;30941;46.422;18.772;2022-10-16T12:14:59;7.72;;;4.15;;
45198;SDS011;30941;46.422;18.772;2022-10-16T12:17:33;6.13;;;4.15;;
45198;SDS011;30941;46.422;18.772;2022-10-16T12:22:37;4.60;;;3.60;;
45198;SDS011;30941;46.422;18.772;2022-10-16T12:25:18;9.60;;;3.95;;
45198;SDS011;30941;46.422;18.772;2022-10-16T12:28:21;6.25;;;3.80;;
45198;SDS011;30941;46.422;18.772;2022-10-16T12:31:21;6.95;;;3.75;;
45198;SDS011;30941;46.422;18.772;2022-10-16T12:33:39;6.22;;;4.32;;
45198;SDS011;30941;46.422;18.772;2022-10-16T12:36:10;7.03;;;3.53;;
45198;SDS011;30941;46.422;18.772;2022-10-16T12:38:48;5.53;;;3.75;;
45198;SDS011;30941;46.422;18.772;2022-10-16T12:41:25;6.28;;;3.80;;
45198;SDS011;30941;46.422;18.772;2022-10-16T12:44:02;4.85;;;3.38;;
45198;SDS011;30941;46.422;18.772;2022-10-16T12:49:04;10.68;;;3.42;;
45198;SDS011;30941;46.422;18.772;2022-10-16T12:51:46;5.90;;;4.00;;
45198;SDS011;30941;46.422;18.772;2022-10-16T12:54:16;5.68;;;3.55;;
45198;SDS011;30941;46.422;18.772;2022-10-16T12:59:31;5.40;;;3.90;;
45198;SDS011;30941;46.422;18.772;2022-10-16T13:02:32;6.68;;;3.65;;
45198;SDS011;30941;46.422;18.772;2022-10-16T13:10:22;5.88;;;3.30;;
45198;SDS011;30941;46.422;18.772;2022-10-16T13:13:05;7.70;;;4.03;;
45198;SDS011;30941;46.422;18.772;2022-10-16T13:15:52;7.55;;;3.63;;
45198;SDS011;30941;46.422;18.772;2022-10-16T13:18:48;5.65;;;3.55;;
45198;SDS011;30941;46.422;18.772;2022-10-16T13:23:56;5.65;;;3.40;;
45198;SDS011;30941;46.422;18.772;2022-10-16T13:29:16;6.25;;;3.55;;
45198;SDS011;30941;46.422;18.772;2022-10-16T13:31:43;7.05;;;3.40;;
45198;SDS011;30941;46.422;18.772;2022-10-16T13:34:12;6.25;;;3.40;;
45198;SDS011;30941;46.422;18.772;2022-10-16T13:36:45;6.35;;;3.55;;
45198;SDS011;30941;46.422;18.772;2022-10-16T13:41:45;4.75;;;3.72;;
45198;SDS011;30941;46.422;18.772;2022-10-16T13:44:17;5.38;;;3.50;;
45198;SDS011;30941;46.422;18.772;2022-10-16T13:46:43;5.20;;;3.28;;
45198;SDS011;30941;46.422;18.772;2022-10-16T13:49:16;7.45;;;4.13;;
45198;SDS011;30941;46.422;18.772;2022-10-16T13:51:53;9.65;;;3.60;;
45198;SDS011;30941;46.422;18.772;2022-10-16T13:54:23;6.07;;;3.58;;
45198;SDS011;30941;46.422;18.772;2022-10-16T13:56:49;7.22;;;3.85;;
45198;SDS011;30941;46.422;18.772;2022-10-16T13:59:25;5.60;;;3.45;;
45198;SDS011;30941;46.422;18.772;2022-10-16T14:01:53;7.90;;;3.65;;
45198;SDS011;30941;46.422;18.772;2022-10-16T14:04:20;7.30;;;3.45;;
45198;SDS011;30941;46.422;18.772;2022-10-16T14:06:46;6.97;;;3.92;;
45198;SDS011;30941;46.422;18.772;2022-10-16T14:09:24;6.40;;;3.45;;
45198;SDS011;30941;46.422;18.772;2022-10-16T14:11:53;6.28;;;3.47;;
45198;SDS011;30941;46.422;18.772;2022-10-16T14:14:20;4.70;;;3.38;;
45198;SDS011;30941;46.422;18.772;2022-10-16T14:16:45;7.03;;;3.67;;
45198;SDS011;30941;46.422;18.772;2022-10-16T14:19:24;5.68;;;3.70;;
45198;SDS011;30941;46.422;18.772;2022-10-16T14:21:51;6.43;;;3.58;;
45198;SDS011;30941;46.422;18.772;2022-10-16T14:26:56;5.93;;;3.55;;
45198;SDS011;30941;46.422;18.772;2022-10-16T14:29:22;8.85;;;3.88;;
45198;SDS011;30941;46.422;18.772;2022-10-16T14:31:58;7.60;;;3.65;;
45198;SDS011;30941;46.422;18.772;2022-10-16T14:34:29;6.38;;;3.70;;
45198;SDS011;30941;46.422;18.772;2022-10-16T14:36:59;10.70;;;3.70;;
45198;SDS011;30941;46.422;18.772;2022-10-16T14:39:31;5.22;;;3.47;;
45198;SDS011;30941;46.422;18.772;2022-10-16T14:41:57;4.95;;;3.70;;
45198;SDS011;30941;46.422;18.772;2022-10-16T14:44:26;6.50;;;3.45;;
45198;SDS011;30941;46.422;18.772;2022-10-16T14:46:54;8.00;;;3.83;;
45198;SDS011;30941;46.422;18.772;2022-10-16T14:49:19;4.65;;;3.53;;
45198;SDS011;30941;46.422;18.772;2022-10-16T14:51:45;5.43;;;3.58;;
45198;SDS011;30941;46.422;18.772;2022-10-16T14:54:12;4.97;;;3.47;;
45198;SDS011;30941;46.422;18.772;2022-10-16T15:01:48;8.20;;;3.78;;
45198;SDS011;30941;46.422;18.772;2022-10-16T15:04:13;6.53;;;4.00;;
45198;SDS011;30941;46.422;18.772;2022-10-16T15:06:40;7.38;;;3.97;;
45198;SDS011;30941;46.422;18.772;2022-10-16T15:09:06;5.80;;;3.60;;
45198;SDS011;30941;46.422;18.772;2022-10-16T15:11:32;6.38;;;3.85;;
45198;SDS011;30941;46.422;18.772;2022-10-16T15:13:58;8.00;;;4.05;;
45198;SDS011;30941;46.422;18.772;2022-10-16T15:16:24;11.18;;;3.97;;
45198;SDS011;30941;46.422;18.772;2022-10-16T15:18:49;8.18;;;3.75;;
45198;SDS011;30941;46.422;18.772;2022-10-16T15:21:33;8.85;;;4.28;;
45198;SDS011;30941;46.422;18.772;2022-10-16T15:24:01;8.50;;;4.13;;
45198;SDS011;30941;46.422;18.772;2022-10-16T15:26:27;11.23;;;4.03;;
45198;SDS011;30941;46.422;18.772;2022-10-16T15:28:54;10.13;;;4.40;;
45198;SDS011;30941;46.422;18.772;2022-10-16T15:31:19;10.13;;;4.50;;
45198;SDS011;30941;46.422;18.772;2022-10-16T15:33:46;11.80;;;4.10;;
45198;SDS011;30941;46.422;18.772;2022-10-16T15:36:23;8.30;;;4.57;;
45198;SDS011;30941;46.422;18.772;2022-10-16T15:38:50;6.93;;;4.45;;
45198;SDS011;30941;46.422;18.772;2022-10-16T15:41:15;7.68;;;4.55;;
45198;SDS011;30941;46.422;18.772;2022-10-16T15:43:40;8.18;;;5.30;;
45198;SDS011;30941;46.422;18.772;2022-10-16T15:46:08;6.13;;;4.15;;
45198;SDS011;30941;46.422;18.772;2022-10-16T15:48:36;5.75;;;4.13;;
45198;SDS011;30941;46.422;18.772;2022-10-16T15:51:04;6.57;;;4.13;;
45198;SDS011;30941;46.422;18.772;2022-10-16T15:53:30;9.02;;;5.00;;
45198;SDS011;30941;46.422;18.772;2022-10-16T15:55:56;10.15;;;4.40;;
45198;SDS011;30941;46.422;18.772;2022-10-16T15:58:24;6.82;;;4.70;;
45198;SDS011;30941;46.422;18.772;2022-10-16T16:00:56;9.95;;;4.97;;
45198;SDS011;30941;46.422;18.772;2022-10-16T16:03:22;10.43;;;5.13;;
45198;SDS011;30941;46.422;18.772;2022-10-16T16:05:48;8.77;;;4.72;;
45198;SDS011;30941;46.422;18.772;2022-10-16T16:08:13;8.20;;;5.68;;
45198;SDS011;30941;46.422;18.772;2022-10-16T16:10:41;14.88;;;5.15;;
45198;SDS011;30941;46.422;18.772;2022-10-16T16:13:08;10.95;;;6.07;;
45198;SDS011;30941;46.422;18.772;2022-10-16T16:15:34;14.38;;;7.00;;
45198;SDS011;30941;46.422;18.772;2022-10-16T16:17:59;13.32;;;7.20;;
45198;SDS011;30941;46.422;18.772;2022-10-16T16:20:27;16.33;;;9.13;;
45198;SDS011;30941;46.422;18.772;2022-10-16T16:22:52;21.30;;;9.18;;
45198;SDS011;30941;46.422;18.772;2022-10-16T16:25:18;13.13;;;8.55;;